Latest Coastal Weather Observations for Hindmarsh Island

IDS60701

Issued at 5:21 am CST Sunday 26 April 2015 (issued every 10 minutes, with the page automatically refreshed every 10 minutes)

About coastal observations | Map of coastal stations | Coastal observations for SA | Marine services | Other Formats
Station Details ID: 023894 Name: HINDMARSH ISLAND AWS Lat: -35.52 Lon: 138.82 Height: 11.0 m
Data from the previous 72 hours. | See also: Recent months at Hindmarsh Island
Date/Time
CST
Temp

°C
Wind Pressure Rain
since 9am
mm
Weather Cloud Vis
km
Sea
Height
m
Swell
Dir
 
Speed
knots
Gust
knots
hPa Trend Height
m
Period
s
Dir
26/05:00am 12.5 S 16 22 1021.8 - 2.2 - - - - - - -
26/04:30am 13.1 SSW 17 20 1021.6 - 2.2 - - - - - - -
26/04:00am 13.1 S 17 20 1021.3 - 2.2 - - - - - - -
26/03:30am 12.6 S 12 15 1021.3 - 2.2 - - - - - - -
26/03:00am 12.8 S 16 20 1021.2 - 2.0 - - - - - - -
26/02:30am 12.7 SW 14 16 1021.4 - 2.0 - - - - - - -
26/02:00am 12.9 SSW 17 21 1021.2 - 2.0 - - - - - - -
26/01:48am 13.3 S 15 19 1021.1 - 2.0 - - - - - - -
26/01:30am 12.8 S 7 9 1021.1 - 2.0 - - - - - - -
26/01:00am 13.2 SSW 12 16 1020.9 - 2.0 - - - - - - -
26/12:30am 13.1 S 14 17 1020.9 - 2.0 - - - - - - -
26/12:00am 13.9 S 17 21 1020.6 - 2.0 - - - - - - -
 
Date/Time
CST
Temp

°C
Wind Pressure Rain
since 9am
mm
Weather Cloud Vis
km
Sea
Height
m
Swell
Dir
 
Speed
knots
Gust
knots
hPa Trend Height
m
Period
s
Dir
25/11:30pm 14.1 S 15 18 1020.6 - 2.0 - - - - - - -
25/11:00pm 13.8 SSW 19 23 1020.6 - 2.0 - - - - - - -
25/10:30pm 14.3 SSW 17 21 1020.4 - 2.0 - - - - - - -
25/10:00pm 14.2 SSW 18 21 1020.3 - 2.0 - - - - - - -
25/09:30pm 14.2 SSW 16 20 1020.1 - 2.0 - - - - - - -
25/09:00pm 14.0 S 17 22 1019.6 - 1.8 - - - - - - -
25/08:30pm 13.8 S 18 22 1019.5 - 1.8 - - - - - - -
25/08:00pm 13.8 S 19 22 1019.4 - 1.8 - - - - - - -
25/07:30pm 13.9 S 20 25 1019.0 - 1.8 - - - - - - -
25/07:00pm 13.1 SSW 23 29 1018.7 - 1.8 - - - - - - -
25/06:48pm 13.1 SSW 23 27 1018.5 - 1.8 - - - - - - -
25/06:30pm 13.1 S 21 27 1018.3 - 1.8 - - - - - - -
25/06:00pm 14.0 S 24 27 1017.3 - 1.6 - - - - - - -
25/05:30pm 13.9 S 23 29 1017.0 - 1.6 - - - - - - -
25/05:00pm 14.6 S 25 30 1016.2 - 1.6 - - - - - - -
25/04:30pm 14.8 S 24 30 1016.0 - 1.6 - - - - - - -
25/04:00pm 14.9 S 25 32 1015.5 - 1.6 - - - - - - -
25/03:30pm 14.9 S 26 31 1015.1 - 1.6 - - - - - - -
25/03:00pm 15.0 S 26 31 1014.3 - 1.6 - - - - - - -
25/02:30pm 14.2 S 27 32 1014.3 - 1.6 - - - - - - -
25/02:00pm 14.0 S 24 32 1013.5 - 1.4 - - - - - - -
25/01:36pm 14.0 S 16 27 1013.6 - 1.0 - - - - - - -
25/01:30pm 14.9 S 15 18 1013.8 - 0.6 - - - - - - -
25/01:00pm 16.2 SW 14 18 1013.8 - 0.4 - - - - - - -
25/12:30pm 14.7 SW 15 19 1013.8 - 0.4 - - - - - - -
25/12:00pm 13.9 SSW 20 24 1013.7 - 0.4 - - - - - - -
25/11:34am 14.4 SW 20 30 1013.6 - 0.0 - - - - - - -
25/11:30am 15.0 SW 19 24 1013.6 - 0.0 - - - - - - -
25/11:00am 15.8 SW 18 23 1013.4 - 0.0 - - - - - - -
25/10:30am 15.8 SW 11 14 1013.3 - 0.0 - - - - - - -
25/10:00am 14.7 SSW 14 19 1013.1 - 0.0 - - - - - - -
25/09:30am 14.2 S 15 18 1012.6 - 0.0 - - - - - - -
25/09:00am 14.3 S 15 18 1012.4 - 18.4 Fine Mostly cloudy 7 - - - -
25/08:30am 14.5 S 15 18 1012.0 - 18.4 - - - - - - -
25/08:00am 13.6 S 16 20 1011.3 - 18.4 - - - - - - -
25/07:30am 13.1 S 17 20 1010.7 - 18.4 - - - - - - -
25/07:00am 12.7 SSE 17 20 1009.9 - 18.4 - - - - - - -
25/06:30am 12.4 SSE 16 20 1009.5 - 18.4 - - - - - - -
25/06:00am 11.9 SSE 17 21 1008.8 - 18.4 - - - - - - -
25/05:30am 11.5 SSE 18 22 1008.5 - 18.4 - - - - - - -
25/05:00am 11.4 SSE 17 21 1007.8 - 18.4 - - - - - - -
25/04:30am 11.2 SSE 20 25 1006.9 - 18.4 - - - - - - -
25/04:00am 10.3 ESE 12 15 1006.3 - 18.4 - - - - - - -
25/03:30am 10.3 ESE 13 15 1005.5 - 18.2 - - - - - - -
25/03:00am 10.2 ESE 11 13 1004.6 - 18.2 - - - - - - -
25/02:30am 9.9 SSE 7 9 1004.3 - 18.2 - - - - - - -
25/02:00am 9.4 ESE 6 8 1003.6 - 18.2 - - - - - - -
25/01:30am 9.4 ENE 8 12 1003.0 - 18.2 - - - - - - -
25/01:00am 9.7 NE 12 15 1002.6 - 17.8 - - - - - - -
25/12:30am 9.6 NE 10 14 1002.4 - 17.2 - - - - - - -
25/12:00am 9.2 NE 9 11 1002.4 - 15.4 - - - - - - -
 
Date/Time
CST
Temp

°C
Wind Pressure Rain
since 9am
mm
Weather Cloud Vis
km
Sea
Height
m
Swell
Dir
 
Speed
knots
Gust
knots
hPa Trend Height
m
Period
s
Dir
24/11:30pm 10.0 NW 1 7 1002.3 - 14.4 - - - - - - -
24/11:00pm 9.8 S 14 21 1002.5 - 13.2 - - - - - - -
24/10:30pm 9.6 NE 15 18 1002.1 - 8.0 - - - - - - -
24/10:00pm 9.7 NE 12 16 1002.7 - 7.8 - - - - - - -
24/09:30pm 9.9 NE 15 19 1003.2 - 7.8 - - - - - - -
24/09:00pm 9.6 N 11 17 1003.9 - 7.6 - - - - - - -
24/08:30pm 10.2 NNW 11 17 1004.9 - 6.0 - - - - - - -
24/08:00pm 10.1 N 9 12 1004.6 - 2.6 - - - - - - -
24/07:30pm 10.7 N 8 12 1005.0 - 2.6 - - - - - - -
24/07:00pm 11.0 N 6 8 1005.8 - 2.4 - - - - - - -
24/06:30pm 9.8 NNE 5 6 1005.6 - 2.4 - - - - - - -
24/06:00pm 10.8 N 4 5 1005.8 - 2.4 - - - - - - -
24/05:30pm 12.9 NW 10 17 1006.3 - 2.4 - - - - - - -
24/05:00pm 14.1 WNW 11 17 1005.9 - 2.4 - - - - - - -
24/04:30pm 14.5 WNW 16 23 1005.6 - 2.4 - - - - - - -
24/04:00pm 15.8 W 16 24 1005.6 - 2.4 - - - - - - -
24/03:30pm 16.1 W 14 20 1005.5 - 2.4 - - - - - - -
24/03:00pm 16.0 W 19 25 1005.5 - 2.4 - - - - - - -
24/02:30pm 16.3 W 17 23 1005.5 - 2.4 - - - - - - -
24/02:21pm 16.2 W 16 23 1005.5 - 2.4 - - - - - - -
24/02:04pm 15.5 SW 20 24 1005.5 - 2.4 - - - - - - -
24/02:00pm 16.3 W 16 22 1005.6 - 2.4 - - - - - - -
24/01:31pm 16.5 W 15 25 1005.4 - 2.4 - - - - - - -
24/01:30pm 16.6 W 14 21 1005.4 - 2.4 - - - - - - -
24/01:00pm 15.0 W 17 23 1006.0 - 2.4 - - - - - - -
24/12:30pm 13.8 W 13 16 1006.4 - 2.2 - - - - - - -
24/12:00pm 13.8 W 13 18 1006.6 - 2.2 - - - - - - -
24/11:30am 12.8 W 11 17 1007.1 - 2.2 - - - - - - -
24/11:00am 12.9 W 21 29 1007.2 - 2.2 - - - - - - -
24/10:40am 13.4 WSW 21 31 1006.9 - 2.2 - - - - - - -
24/10:30am 13.5 WSW 22 30 1006.6 - 2.2 - - - - - - -
24/10:12am 13.0 SW 24 36 1006.4 - 2.2 - - - - - - -
24/10:08am 13.7 W 22 36 1006.1 - 2.2 - - - - - - -
24/10:00am 15.0 NNW 6 9 1005.9 - 2.2 - - - - - - -
24/09:30am 14.2 NNW 8 13 1006.3 - 2.2 - - - - - - -
24/09:00am 14.8 NNW 13 17 1006.4 - 0.2 Showers Cloudy 5 - - - -
24/08:30am 16.4 NW 14 21 1006.4 - 0.0 - - - - - - -
24/08:00am 14.7 N 8 10 1006.5 - 0.0 - - - - - - -
24/07:30am 14.7 N 8 11 1006.4 - 0.0 - - - - - - -
24/07:00am 13.7 N 7 8 1006.7 - 0.0 - - - - - - -
24/06:30am 13.7 N 6 7 1007.1 - 0.0 - - - - - - -
24/06:00am 13.8 NW 7 8 1007.4 - 0.0 - - - - - - -
24/05:30am 13.8 NW 5 7 1007.4 - 0.0 - - - - - - -
24/05:00am 14.0 WNW 7 9 1007.7 - 0.0 - - - - - - -
24/04:30am 14.1 WNW 5 7 1007.6 - 0.0 - - - - - - -
24/04:00am 14.1 WNW 7 9 1008.1 - 0.0 - - - - - - -
24/03:30am 14.1 WNW 7 10 1008.6 - 0.0 - - - - - - -
24/03:00am 13.2 W 3 4 1008.8 - 0.0 - - - - - - -
24/02:30am 13.2 WNW 4 5 1009.3 - 0.0 - - - - - - -
24/02:00am 13.2 NNW 5 6 1009.6 - 0.0 - - - - - - -
24/01:30am 13.0 N 5 6 1009.8 - 0.0 - - - - - - -
24/01:00am 12.8 N 5 6 1010.4 - 0.0 - - - - - - -
24/12:30am 12.7 N 5 6 1010.7 - 0.0 - - - - - - -
24/12:00am 12.7 NNW 5 5 1010.9 - 0.0 - - - - - - -
 
Date/Time
CST
Temp

°C
Wind Pressure Rain
since 9am
mm
Weather Cloud Vis
km
Sea
Height
m
Swell
Dir
 
Speed
knots
Gust
knots
hPa Trend Height
m
Period
s
Dir
23/11:30pm 13.1 NW 4 4 1011.3 - 0.0 - - - - - - -
23/11:00pm 12.6 NW 5 5 1011.9 - 0.0 - - - - - - -
23/10:30pm 12.9 NNW 5 5 1012.3 - 0.0 - - - - - - -
23/10:00pm 13.3 NW 5 6 1012.7 - 0.0 - - - - - - -
23/09:30pm 13.8 WNW 4 5 1012.9 - 0.0 - - - - - - -
23/09:00pm 14.2 SW 5 6 1012.9 - 0.0 - - - - - - -
23/08:30pm 14.2 SSW 5 6 1013.2 - 0.0 - - - - - - -
23/08:00pm 14.4 WSW 5 6 1013.4 - 0.0 - - - - - - -
23/07:30pm 14.8 SSW 8 9 1013.6 - 0.0 - - - - - - -
23/07:00pm 14.9 SW 7 8 1013.8 - 0.0 - - - - - - -
23/06:30pm 14.8 SW 6 7 1014.2 - 0.0 - - - - - - -
23/06:00pm 14.9 SSW 6 7 1013.8 - 0.0 - - - - - - -
23/05:30pm 14.9 SSW 4 5 1014.0 - 0.0 - - - - - - -
23/05:00pm 15.0 SSW 5 6 1014.0 - 0.0 - - - - - - -
23/04:30pm 15.2 SW 5 7 1014.1 - 0.0 - - - - - - -
23/04:00pm 15.9 SW 5 6 1014.3 - 0.0 - - - - - - -
23/03:30pm 16.2 SW 6 9 1014.5 - 0.0 - - - - - - -
23/03:00pm 16.9 S 6 8 1014.3 - 0.0 - - - - - - -
23/02:30pm 16.3 S 5 7 1014.7 - 0.0 - - - - - - -
23/02:00pm 15.8 S 6 7 1015.0 - 0.0 - - - - - - -
23/01:30pm 15.7 SSW 8 11 1015.2 - 0.0 - - - - - - -
23/01:00pm 15.2 S 5 7 1015.4 - 0.0 - - - - - - -
23/12:30pm 15.3 SW 5 6 1016.6 - 0.0 - - - - - - -
23/12:00pm 15.4 SW 6 8 1017.3 - 0.0 - - - - - - -
23/11:30am 15.4 SW 4 6 1017.9 - 0.0 - - - - - - -
23/11:00am 15.1 SSE 2 4 1018.4 - 0.0 - - - - - - -
23/10:30am 15.4 WNW 2 4 1018.8 - 0.0 - - - - - - -
23/10:00am 15.1 S 3 4 1018.8 - 0.0 - - - - - - -
23/09:30am 13.8 NNE 3 4 1019.1 - 0.0 - - - - - - -
23/09:00am 13.7 NNE 3 4 1019.5 - 0.0 - - - - - - -
23/08:30am 12.9 ENE 5 6 1019.7 - 0.0 - - - - - - -
23/08:00am 11.9 NE 5 6 1019.6 - 0.0 - - - - - - -
23/07:30am 10.6 ENE 6 6 1019.6 - 0.0 - - - - - - -
23/07:00am 10.5 E 6 7 1019.4 - 0.0 - - - - - - -
23/06:30am 10.4 E 8 8 1019.4 - 0.0 - - - - - - -
23/06:00am 10.6 E 7 7 1019.3 - 0.0 - - - - - - -
23/05:30am 11.4 E 6 7 1019.5 - 0.0 - - - - - - -

Other Formats:

Comma delimited format used in spreadsheet applications
http://www.bom.gov.au/fwo/IDS60701/IDS60701.94677.axf

JavaScript Object Notation format (JSON) in row-major order
http://www.bom.gov.au/fwo/IDS60701/IDS60701.94677.json